createdAt,value
2022-10-08T00:01:30.657Z,93.14
2022-10-08T00:03:58.655Z,92.59
2022-10-08T00:06:28.302Z,92.27
2022-10-08T00:08:58.634Z,92.81
2022-10-08T00:11:29.907Z,93.02
2022-10-08T00:13:59.964Z,92.35
2022-10-08T00:16:29.916Z,92.91
2022-10-08T00:19:01.189Z,93.43
2022-10-08T00:21:31.360Z,93.60
2022-10-08T00:24:00.016Z,99.18
2022-10-08T00:26:30.402Z,97.44
2022-10-08T00:29:01.705Z,96.22
2022-10-08T00:31:32.590Z,95.63
2022-10-08T00:34:02.996Z,95.00
2022-10-08T00:36:32.666Z,94.21
2022-10-08T00:39:02.138Z,93.49
2022-10-08T00:41:33.301Z,93.72
2022-10-08T00:44:03.904Z,93.95
2022-10-08T00:46:36.779Z,97.71
2022-10-08T00:49:11.599Z,100.00
2022-10-08T00:51:42.984Z,100.00
2022-10-08T00:54:11.370Z,100.00
2022-10-08T00:56:40.903Z,100.00
2022-10-08T00:59:12.609Z,100.00
2022-10-08T01:01:43.826Z,97.21
2022-10-08T01:04:14.328Z,96.33
2022-10-08T01:06:49.858Z,96.10
2022-10-08T01:09:22.502Z,95.52
2022-10-08T01:11:55.984Z,94.68
2022-10-08T01:14:36.253Z,94.55
2022-10-08T01:17:10.831Z,94.89
2022-10-08T01:19:57.907Z,95.04
2022-10-08T01:22:39.500Z,95.01
2022-10-08T01:25:34.004Z,94.44
2022-10-08T01:28:12.408Z,93.56
2022-10-08T01:30:46.806Z,93.80
2022-10-08T01:33:20.144Z,94.94
2022-10-08T01:35:54.110Z,96.55
2022-10-08T01:38:25.174Z,96.32
2022-10-08T01:40:59.169Z,96.71
2022-10-08T01:43:33.225Z,95.75
2022-10-08T01:46:06.928Z,93.47
2022-10-08T01:48:37.779Z,92.74
2022-10-08T01:51:10.092Z,92.31
2022-10-08T01:53:41.833Z,92.58
2022-10-08T01:56:13.795Z,92.67
2022-10-08T01:58:50.148Z,92.70
2022-10-08T02:01:23.624Z,93.11
2022-10-08T02:04:10.739Z,93.21
2022-10-08T02:06:42.935Z,93.74
2022-10-08T02:09:11.608Z,93.01
2022-10-08T02:11:39.669Z,92.22
2022-10-08T02:14:09.361Z,92.56
2022-10-08T02:16:40.481Z,93.67
2022-10-08T02:19:12.994Z,93.54
2022-10-08T02:21:42.071Z,93.94
2022-10-08T02:24:17.486Z,93.27
2022-10-08T02:26:49.601Z,94.63
2022-10-08T02:29:21.707Z,97.65
2022-10-08T02:31:52.155Z,98.20
2022-10-08T02:34:24.743Z,100.00
2022-10-08T02:36:59.354Z,100.00
2022-10-08T02:39:30.792Z,98.23
2022-10-08T02:42:03.168Z,98.29
2022-10-08T02:44:37.756Z,97.18
2022-10-08T02:47:09.719Z,99.39
2022-10-08T02:49:40.854Z,99.44
2022-10-08T02:52:11.137Z,99.97
2022-10-08T02:54:41.369Z,100.00
2022-10-08T02:57:16.801Z,100.00
2022-10-08T02:59:46.758Z,97.87
2022-10-08T03:02:21.286Z,98.16
2022-10-08T03:04:55.828Z,97.19
2022-10-08T03:07:24.742Z,94.57
2022-10-08T03:09:54.396Z,94.90
2022-10-08T03:12:22.431Z,95.21
2022-10-08T03:14:52.442Z,95.11
2022-10-08T03:17:25.254Z,94.21
2022-10-08T03:19:53.422Z,93.88
2022-10-08T03:22:21.502Z,94.94
2022-10-08T03:24:51.771Z,95.64
2022-10-08T03:27:21.667Z,95.14
2022-10-08T03:29:51.962Z,95.23
2022-10-08T03:32:19.867Z,95.12
2022-10-08T03:34:47.751Z,95.05
2022-10-08T03:37:15.679Z,95.05
2022-10-08T03:39:43.723Z,95.40
2022-10-08T03:42:11.778Z,96.04
2022-10-08T03:44:39.685Z,100.00
2022-10-08T03:47:09.043Z,100.00
2022-10-08T03:49:36.996Z,100.00
2022-10-08T03:52:04.959Z,100.00
2022-10-08T03:54:35.305Z,100.00
2022-10-08T03:57:03.334Z,100.00
2022-10-08T03:59:31.338Z,100.00
2022-10-08T04:01:59.235Z,100.00
2022-10-08T04:04:28.742Z,100.00
2022-10-08T04:06:56.656Z,100.00
2022-10-08T04:09:24.566Z,100.00
2022-10-08T04:11:52.456Z,100.00
2022-10-08T04:14:20.366Z,100.00
2022-10-08T04:16:48.345Z,100.00
2022-10-08T04:19:17.630Z,100.00
2022-10-08T04:21:46.926Z,100.00
2022-10-08T04:24:14.854Z,100.00
2022-10-08T04:26:42.776Z,100.00
2022-10-08T04:29:12.640Z,100.00
2022-10-08T04:31:40.976Z,100.00
2022-10-08T04:34:10.604Z,100.00
2022-10-08T04:36:38.573Z,100.00
2022-10-08T04:39:08.056Z,100.00
2022-10-08T04:41:35.995Z,100.00
2022-10-08T04:44:03.900Z,100.00
2022-10-08T04:46:31.851Z,100.00
2022-10-08T04:49:00.258Z,99.65
2022-10-08T04:51:28.911Z,98.96
2022-10-08T04:53:58.377Z,98.54
2022-10-08T04:56:28.941Z,98.24
2022-10-08T04:58:58.223Z,98.19
2022-10-08T05:01:27.399Z,97.99
2022-10-08T05:03:57.488Z,97.50
2022-10-08T05:06:28.196Z,97.61
2022-10-08T05:08:56.390Z,98.05
2022-10-08T05:11:25.713Z,98.69
2022-10-08T05:13:55.868Z,99.86
2022-10-08T05:16:24.191Z,100.00
2022-10-08T05:18:52.871Z,99.09
2022-10-08T05:21:23.793Z,99.29
2022-10-08T05:23:56.818Z,99.14
2022-10-08T05:26:46.604Z,99.58
2022-10-08T05:29:15.792Z,100.00
2022-10-08T05:31:43.734Z,100.00
2022-10-08T05:34:13.069Z,100.00
2022-10-08T05:36:40.975Z,100.00
2022-10-08T05:39:08.974Z,100.00
2022-10-08T05:41:38.403Z,100.00
2022-10-08T05:44:07.794Z,100.00
2022-10-08T05:46:38.230Z,100.00
2022-10-08T05:49:08.345Z,100.00
2022-10-08T05:51:36.409Z,100.00
2022-10-08T05:54:04.479Z,100.00
2022-10-08T05:56:32.437Z,100.00
2022-10-08T05:59:00.406Z,100.00
2022-10-08T06:01:30.905Z,100.00
2022-10-08T06:04:07.834Z,99.68
2022-10-08T06:06:36.948Z,99.48
2022-10-08T06:09:05.550Z,98.69
2022-10-08T06:11:36.314Z,98.56
2022-10-08T06:14:06.142Z,96.81
2022-10-08T06:16:35.085Z,95.91
2022-10-08T06:19:05.295Z,91.53
2022-10-08T06:21:33.694Z,92.08
2022-10-08T06:24:03.309Z,93.04
2022-10-08T06:26:35.931Z,91.19
2022-10-08T06:29:05.694Z,90.43
2022-10-08T06:31:34.559Z,90.16
2022-10-08T06:34:04.919Z,86.79
2022-10-08T06:36:34.522Z,88.08
2022-10-08T06:39:05.253Z,86.95
2022-10-08T06:41:35.141Z,88.05
2022-10-08T06:44:04.348Z,87.62
2022-10-08T06:46:32.920Z,85.90
2022-10-08T06:49:01.731Z,85.50
2022-10-08T06:51:31.517Z,83.94
2022-10-08T06:54:06.668Z,85.71
2022-10-08T06:56:36.342Z,84.94
2022-10-08T06:59:04.538Z,82.87
2022-10-08T07:01:34.182Z,82.41
2022-10-08T07:04:03.642Z,85.26
2022-10-08T07:06:32.992Z,83.04
2022-10-08T07:09:02.317Z,83.05
2022-10-08T07:11:32.202Z,81.23
2022-10-08T07:14:00.470Z,81.19
2022-10-08T07:16:29.457Z,82.01
2022-10-08T07:18:58.988Z,80.14
2022-10-08T07:21:28.664Z,79.91
2022-10-08T07:24:00.484Z,78.87
2022-10-08T07:26:32.438Z,79.78
2022-10-08T07:29:02.464Z,78.62
2022-10-08T07:31:32.994Z,80.60
2022-10-08T07:34:02.418Z,78.75
2022-10-08T07:36:30.997Z,78.14
2022-10-08T07:39:01.550Z,78.07
2022-10-08T07:41:30.502Z,75.38
2022-10-08T07:44:00.592Z,74.38
2022-10-08T07:46:29.425Z,71.39
2022-10-08T07:48:59.244Z,71.96
2022-10-08T07:51:28.341Z,73.20
2022-10-08T07:54:01.456Z,75.24
2022-10-08T07:56:32.246Z,74.38
2022-10-08T07:59:00.714Z,73.14
2022-10-08T08:01:30.185Z,72.03
2022-10-08T08:04:00.226Z,69.94
2022-10-08T08:06:28.370Z,67.77
2022-10-08T08:08:56.985Z,68.37
2022-10-08T08:11:26.012Z,69.49
2022-10-08T08:13:55.425Z,67.41
2022-10-08T08:16:26.350Z,67.58
2022-10-08T08:18:57.511Z,66.03
2022-10-08T08:21:27.946Z,67.38
2022-10-08T08:23:57.773Z,68.09
2022-10-08T08:26:28.770Z,65.60
2022-10-08T08:28:59.837Z,64.45
2022-10-08T08:31:29.900Z,61.27
2022-10-08T08:34:00.481Z,64.33
2022-10-08T08:36:31.142Z,63.96
2022-10-08T08:38:59.865Z,62.35
2022-10-08T08:41:48.674Z,62.30
2022-10-08T08:44:23.376Z,63.13
2022-10-08T08:46:57.766Z,61.15
2022-10-08T08:49:29.868Z,61.55
2022-10-08T08:51:59.278Z,64.12
2022-10-08T08:54:27.199Z,61.46
2022-10-08T08:56:56.198Z,60.19
2022-10-08T08:59:30.337Z,61.32
2022-10-08T09:02:01.313Z,58.26
2022-10-08T09:04:41.665Z,58.71
2022-10-08T09:07:16.359Z,56.56
2022-10-08T09:09:47.603Z,59.06
2022-10-08T09:12:21.047Z,56.23
2022-10-08T09:14:51.922Z,59.60
2022-10-08T09:17:21.532Z,57.03
2022-10-08T09:19:51.162Z,58.48
2022-10-08T09:22:23.022Z,59.14
2022-10-08T09:24:54.285Z,60.28
2022-10-08T09:27:22.210Z,61.23
2022-10-08T09:29:51.512Z,58.89
2022-10-08T09:32:21.265Z,61.39
2022-10-08T09:34:50.407Z,58.32
2022-10-08T09:37:25.287Z,57.34
2022-10-08T09:40:19.486Z,58.33
2022-10-08T09:43:05.536Z,57.40
2022-10-08T09:45:40.119Z,56.95
2022-10-08T09:48:19.156Z,55.35
2022-10-08T09:50:58.162Z,55.86
2022-10-08T09:53:30.176Z,54.00
2022-10-08T09:56:01.119Z,54.32
2022-10-08T09:58:32.120Z,56.39
2022-10-08T10:01:05.938Z,55.83
2022-10-08T10:03:36.509Z,52.67
2022-10-08T10:06:04.826Z,53.72
2022-10-08T10:08:54.376Z,55.09
2022-10-08T10:11:31.128Z,54.59
2022-10-08T10:14:03.550Z,54.03
2022-10-08T10:16:37.613Z,51.63
2022-10-08T10:19:09.770Z,52.85
2022-10-08T10:21:44.445Z,52.20
2022-10-08T10:24:26.683Z,52.10
2022-10-08T10:26:58.048Z,52.16
2022-10-08T10:29:31.671Z,53.38
2022-10-08T10:32:03.817Z,52.85
2022-10-08T10:34:37.202Z,53.02
2022-10-08T10:37:12.646Z,53.66
2022-10-08T10:39:46.335Z,50.85
2022-10-08T10:42:18.424Z,51.86
2022-10-08T10:44:53.898Z,53.06
2022-10-08T10:47:30.980Z,54.14
2022-10-08T10:50:01.391Z,52.66
2022-10-08T10:52:46.737Z,51.39
2022-10-08T10:55:28.052Z,52.40
2022-10-08T10:58:17.635Z,49.68
2022-10-08T11:00:58.259Z,49.99
2022-10-08T11:03:37.575Z,48.84
2022-10-08T11:06:31.654Z,49.67
2022-10-08T11:09:04.239Z,49.77
2022-10-08T11:11:40.153Z,50.31
2022-10-08T11:14:22.635Z,49.39
2022-10-08T11:17:04.580Z,49.74
2022-10-08T11:19:48.570Z,50.84
2022-10-08T11:22:24.717Z,49.78
2022-10-08T11:25:06.281Z,48.62
2022-10-08T11:27:43.837Z,52.09
2022-10-08T11:30:14.829Z,50.14
2022-10-08T11:32:46.066Z,51.21
2022-10-08T11:35:25.727Z,51.46
2022-10-08T11:38:01.340Z,53.62
2022-10-08T11:40:33.957Z,49.90
2022-10-08T11:43:09.685Z,50.56
2022-10-08T11:45:40.113Z,52.43
2022-10-08T11:48:34.390Z,52.63
2022-10-08T11:51:20.467Z,49.41
2022-10-08T11:54:07.180Z,50.09
2022-10-08T11:56:37.209Z,51.55
2022-10-08T11:59:11.293Z,48.67
2022-10-08T12:01:54.154Z,49.21
2022-10-08T12:04:24.161Z,50.63
2022-10-08T12:07:08.386Z,50.37
2022-10-08T12:10:04.632Z,49.01
2022-10-08T12:13:25.892Z,50.41
2022-10-08T12:16:05.209Z,49.48
2022-10-08T12:18:50.887Z,50.35
2022-10-08T12:21:52.150Z,50.10
2022-10-08T12:24:55.634Z,49.08
2022-10-08T12:27:41.381Z,49.97
2022-10-08T12:30:12.120Z,49.17
2022-10-08T12:32:57.570Z,50.68
2022-10-08T12:35:29.828Z,48.71
2022-10-08T12:38:25.140Z,50.70
2022-10-08T12:41:15.902Z,51.00
2022-10-08T12:43:53.186Z,50.32
2022-10-08T12:46:34.853Z,50.38
2022-10-08T12:49:13.247Z,50.45
2022-10-08T12:51:47.594Z,50.46
2022-10-08T12:54:20.938Z,49.47
2022-10-08T12:56:50.353Z,51.72
2022-10-08T12:59:21.026Z,50.67
2022-10-08T13:01:51.723Z,50.13
2022-10-08T13:04:21.775Z,52.48
2022-10-08T13:06:51.240Z,51.77
2022-10-08T13:09:31.389Z,56.26
2022-10-08T13:12:03.531Z,53.17
2022-10-08T13:14:35.408Z,56.74
2022-10-08T13:17:03.799Z,51.99
2022-10-08T13:19:33.898Z,50.96
2022-10-08T13:22:05.225Z,56.88
2022-10-08T13:24:44.204Z,55.87
2022-10-08T13:27:27.119Z,57.14
2022-10-08T13:29:57.165Z,55.93
2022-10-08T13:32:26.826Z,53.29
2022-10-08T13:34:57.275Z,51.98
2022-10-08T13:37:28.953Z,52.83
2022-10-08T13:39:58.553Z,52.39
2022-10-08T13:42:28.900Z,52.54
2022-10-08T13:44:58.993Z,52.94
2022-10-08T13:47:28.545Z,55.06
2022-10-08T13:50:01.867Z,58.30
2022-10-08T13:52:31.910Z,54.03
2022-10-08T13:55:02.019Z,54.67
2022-10-08T13:57:29.962Z,54.60
2022-10-08T13:59:59.418Z,55.81
2022-10-08T14:02:27.370Z,55.42
2022-10-08T14:04:55.382Z,55.98
2022-10-08T14:07:27.118Z,56.32
2022-10-08T14:09:57.145Z,57.25
2022-10-08T14:12:28.759Z,55.93
2022-10-08T14:14:57.461Z,55.21
2022-10-08T14:17:27.244Z,52.71
2022-10-08T14:19:55.627Z,53.92
2022-10-08T14:22:24.103Z,55.19
2022-10-08T14:24:52.091Z,59.06
2022-10-08T14:27:20.004Z,59.36
2022-10-08T14:29:47.936Z,60.63
2022-10-08T14:32:15.903Z,60.28
2022-10-08T14:34:45.204Z,61.71
2022-10-08T14:37:13.146Z,62.96
2022-10-08T14:39:41.100Z,63.60
2022-10-08T14:42:08.993Z,64.27
2022-10-08T14:44:36.911Z,64.80
2022-10-08T14:47:04.845Z,65.43
2022-10-08T14:49:32.906Z,65.83
2022-10-08T14:52:02.194Z,66.67
2022-10-08T14:54:30.105Z,67.25
2022-10-08T14:56:58.040Z,66.82
2022-10-08T14:59:26.196Z,68.15
2022-10-08T15:01:54.480Z,68.01
2022-10-08T15:04:22.485Z,69.28
2022-10-08T15:06:50.622Z,68.99
2022-10-08T15:09:19.941Z,68.72
2022-10-08T15:11:47.849Z,68.48
2022-10-08T15:14:15.817Z,68.92
2022-10-08T15:16:44.155Z,69.33
2022-10-08T15:19:12.455Z,70.08
2022-10-08T15:21:40.574Z,70.34
2022-10-08T15:24:08.793Z,71.32
2022-10-08T15:26:38.103Z,71.23
2022-10-08T15:29:06.058Z,71.13
2022-10-08T15:31:34.159Z,71.79
2022-10-08T15:34:02.193Z,72.66
2022-10-08T15:36:31.967Z,72.37
2022-10-08T15:39:01.037Z,71.25
2022-10-08T15:41:31.036Z,71.40
2022-10-08T15:44:09.795Z,71.18
2022-10-08T15:46:38.140Z,71.73
2022-10-08T15:49:06.750Z,71.46
2022-10-08T15:51:35.889Z,71.93
2022-10-08T15:54:04.551Z,71.95
2022-10-08T15:56:32.959Z,71.23
2022-10-08T15:59:03.152Z,70.94
2022-10-08T16:01:31.276Z,71.80
2022-10-08T16:04:00.224Z,71.50
2022-10-08T16:06:33.295Z,71.19
2022-10-08T16:09:02.594Z,71.19
2022-10-08T16:11:32.504Z,70.93
2022-10-08T16:14:03.810Z,71.18
2022-10-08T16:16:31.878Z,71.52
2022-10-08T16:19:01.894Z,71.29
2022-10-08T16:21:31.412Z,70.65
2022-10-08T16:23:59.922Z,71.56
2022-10-08T16:26:29.067Z,71.40
2022-10-08T16:28:59.110Z,70.81
2022-10-08T16:31:30.116Z,70.62
2022-10-08T16:33:59.087Z,71.50
2022-10-08T16:36:27.825Z,71.97
2022-10-08T16:38:56.557Z,72.16
2022-10-08T16:41:26.447Z,70.79
2022-10-08T16:43:55.790Z,70.65
2022-10-08T16:46:26.503Z,71.13
2022-10-08T16:48:58.076Z,71.84
2022-10-08T16:51:27.583Z,72.16
2022-10-08T16:53:57.389Z,73.19
2022-10-08T16:56:27.178Z,73.39
2022-10-08T16:58:56.999Z,73.36
2022-10-08T17:01:25.961Z,73.57
2022-10-08T17:03:55.834Z,73.87
2022-10-08T17:06:24.841Z,74.35
2022-10-08T17:08:53.634Z,74.58
2022-10-08T17:11:22.300Z,74.69
2022-10-08T17:13:52.548Z,75.38
2022-10-08T17:16:22.562Z,74.60
2022-10-08T17:18:52.241Z,74.56
2022-10-08T17:21:21.973Z,75.34
2022-10-08T17:23:50.881Z,74.68
2022-10-08T17:26:20.760Z,76.77
2022-10-08T17:28:50.431Z,76.90
2022-10-08T17:31:20.625Z,76.62
2022-10-08T17:33:48.658Z,75.95
2022-10-08T17:36:18.594Z,75.15
2022-10-08T17:38:49.334Z,76.26
2022-10-08T17:41:18.954Z,76.46
2022-10-08T17:43:47.776Z,77.20
2022-10-08T17:46:17.781Z,77.86
2022-10-08T17:48:46.549Z,78.00
2022-10-08T17:51:16.435Z,78.42
2022-10-08T17:53:44.977Z,78.67
2022-10-08T17:56:15.455Z,78.92
2022-10-08T17:58:43.492Z,77.96
2022-10-08T18:01:13.529Z,77.73
2022-10-08T18:03:43.390Z,77.68
2022-10-08T18:06:12.714Z,79.16
2022-10-08T18:08:41.809Z,79.56
2022-10-08T18:11:12.905Z,79.57
2022-10-08T18:13:42.362Z,79.26
2022-10-08T18:16:12.626Z,79.31
2022-10-08T18:18:41.164Z,79.07
2022-10-08T18:21:10.814Z,78.99
2022-10-08T18:23:41.903Z,79.46
2022-10-08T18:26:12.765Z,80.06
2022-10-08T18:28:42.100Z,80.53
2022-10-08T18:31:12.394Z,80.03
2022-10-08T18:33:42.206Z,80.38
2022-10-08T18:36:12.799Z,80.50
2022-10-08T18:38:41.586Z,80.07
2022-10-08T18:41:14.407Z,80.41
2022-10-08T18:43:44.928Z,80.15
2022-10-08T18:46:13.654Z,80.52
2022-10-08T18:48:42.220Z,79.91
2022-10-08T18:51:11.938Z,79.80
2022-10-08T18:53:42.790Z,79.94
2022-10-08T18:56:13.731Z,79.72
2022-10-08T18:58:43.266Z,79.55
2022-10-08T19:01:18.526Z,79.41
2022-10-08T19:03:48.038Z,79.60
2022-10-08T19:06:16.431Z,79.85
2022-10-08T19:08:44.351Z,80.47
2022-10-08T19:11:13.605Z,80.38
2022-10-08T19:13:43.046Z,80.25
2022-10-08T19:16:13.737Z,81.98
2022-10-08T19:18:43.111Z,81.75
2022-10-08T19:21:12.057Z,82.61
2022-10-08T19:23:40.720Z,83.88
2022-10-08T19:26:09.010Z,83.48
2022-10-08T19:28:38.872Z,83.41
2022-10-08T19:31:15.463Z,83.45
2022-10-08T19:33:43.530Z,83.19
2022-10-08T19:36:11.441Z,83.02
2022-10-08T19:38:39.397Z,82.52
2022-10-08T19:41:11.691Z,82.55
2022-10-08T19:43:43.010Z,82.57
2022-10-08T19:46:11.299Z,82.92
2022-10-08T19:48:41.095Z,83.32
2022-10-08T19:51:11.662Z,83.68
2022-10-08T19:53:40.056Z,84.25
2022-10-08T19:56:10.029Z,84.58
2022-10-08T19:58:38.464Z,84.59
2022-10-08T20:01:08.378Z,84.84
2022-10-08T20:03:36.797Z,84.93
2022-10-08T20:06:08.343Z,84.68
2022-10-08T20:08:36.929Z,84.71
2022-10-08T20:11:05.666Z,85.08
2022-10-08T20:13:33.787Z,85.21
2022-10-08T20:16:05.284Z,85.49
2022-10-08T20:18:33.699Z,84.94
2022-10-08T20:21:03.217Z,84.69
2022-10-08T20:23:33.012Z,85.07
2022-10-08T20:26:13.982Z,85.31
2022-10-08T20:28:41.988Z,85.44
2022-10-08T20:31:14.181Z,85.55
2022-10-08T20:33:42.559Z,85.42
2022-10-08T20:36:15.692Z,85.75
2022-10-08T20:38:45.224Z,85.89
2022-10-08T20:41:13.181Z,85.83
2022-10-08T20:43:41.127Z,86.01
2022-10-08T20:46:12.001Z,85.44
2022-10-08T20:48:41.737Z,86.04
2022-10-08T20:51:11.610Z,86.44
2022-10-08T20:53:39.929Z,86.87
2022-10-08T20:56:11.073Z,88.38
2022-10-08T20:58:39.917Z,89.77
2022-10-08T21:01:10.085Z,89.85
2022-10-08T21:03:38.887Z,91.32
2022-10-08T21:06:08.401Z,94.43
2022-10-08T21:08:37.891Z,94.29
2022-10-08T21:11:06.956Z,94.82
2022-10-08T21:13:37.106Z,95.35
2022-10-08T21:16:07.689Z,95.24
2022-10-08T21:18:36.961Z,94.39
2022-10-08T21:21:05.764Z,93.53
2022-10-08T21:23:33.789Z,92.71
2022-10-08T21:26:10.377Z,92.03
2022-10-08T21:28:40.133Z,91.03
2022-10-08T21:31:09.463Z,89.87
2022-10-08T21:33:38.273Z,89.63
2022-10-08T21:36:07.342Z,89.82
2022-10-08T21:38:35.446Z,90.63
2022-10-08T21:41:11.304Z,90.39
2022-10-08T21:43:41.521Z,89.94
2022-10-08T21:46:10.724Z,89.99
2022-10-08T21:48:39.382Z,90.57
2022-10-08T21:51:10.205Z,90.44
2022-10-08T21:53:40.214Z,90.32
2022-10-08T21:56:11.160Z,90.13
2022-10-08T21:58:42.758Z,90.38
2022-10-08T22:01:21.191Z,90.38
2022-10-08T22:03:49.826Z,91.87
2022-10-08T22:06:17.759Z,91.62
2022-10-08T22:08:45.693Z,93.62
2022-10-08T22:11:14.097Z,93.48
2022-10-08T22:13:43.491Z,93.01
2022-10-08T22:16:13.620Z,91.44
2022-10-08T22:18:42.419Z,90.83
2022-10-08T22:21:14.306Z,91.54
2022-10-08T22:23:42.253Z,90.84
2022-10-08T22:26:12.849Z,92.25
2022-10-08T22:28:42.073Z,93.71
2022-10-08T22:31:14.058Z,93.09
2022-10-08T22:33:42.818Z,93.64
2022-10-08T22:36:12.717Z,93.33
2022-10-08T22:38:42.977Z,91.84
2022-10-08T22:41:12.506Z,92.85
2022-10-08T22:43:41.465Z,97.11
2022-10-08T22:46:12.399Z,95.82
2022-10-08T22:48:40.848Z,94.95
2022-10-08T22:51:11.813Z,93.40
2022-10-08T22:53:40.206Z,93.82
2022-10-08T22:56:11.149Z,91.89
2022-10-08T22:58:39.257Z,91.35
2022-10-08T23:01:09.497Z,91.42
2022-10-08T23:03:39.895Z,91.87
2022-10-08T23:06:10.233Z,92.10
2022-10-08T23:08:38.162Z,92.57
2022-10-08T23:11:06.731Z,93.04
2022-10-08T23:13:35.036Z,92.91
2022-10-08T23:16:04.722Z,94.09
2022-10-08T23:18:34.283Z,94.61
2022-10-08T23:21:04.480Z,94.15
2022-10-08T23:23:33.175Z,93.20
2022-10-08T23:26:03.211Z,92.46
2022-10-08T23:28:32.804Z,92.93
2022-10-08T23:31:09.065Z,95.08
2022-10-08T23:33:38.411Z,95.20
2022-10-08T23:36:09.816Z,95.56
2022-10-08T23:38:38.549Z,96.24
2022-10-08T23:41:08.548Z,97.30
2022-10-08T23:43:37.821Z,98.33
2022-10-08T23:46:07.279Z,97.56
2022-10-08T23:48:35.442Z,96.82
2022-10-08T23:51:04.658Z,96.89
2022-10-08T23:53:35.904Z,96.92
2022-10-08T23:56:04.319Z,97.00
2022-10-08T23:58:32.243Z,96.64
